Airfield :
LOGIN :

Register | Disclaimer

   EN    FR    IT 

 










Legend :    VFR   Marginal VFR   IFR   Intensive IFR   Very Intensive IFR
Visi :
Ceiling :
>= 8 km
>= 3000ft
5 to 8 km
1000 to 3000 ft
1500m to 5 km
500 to 1000 ft
800 to 1500m
200 to 500 ft
< 800m
< 200 ft
Symbols :   Thunderstorms  Fog  Heavy snow  Heavy precipitations  Wind > 20 kt
SIGMETs :     Misc.  Thunderstorms  Icing  Turbulence  Mountain Waves  Volcanic Ashes






- Airport Elevation : 141 ft
- IATA code : SKS


EKSP - Srydstrup Vojens

CURRENT METAR :
  • 311911Z 26010KT 7000 -SHRA SCT013TCU BKN028 15/13 Q1002

EXPIRED METARs :
  • 311850Z 26010KT 9999 FEW023TCU BKN035 BKN042 16/13 Q1002
  • 311820Z 27010KT 9999 FEW023TCU BKN032 16/13 Q1002
  • 311750Z 27012KT 9999 FEW018TCU BKN032 16/13 Q1001
  • 311720Z 28009KT 9999 FEW010 FEW018TCU BKN032 16/14 Q1001
  • 311650Z 29012KT 9999 FEW010 FEW018TCU BKN060 16/13 Q1001
  • 311620Z 26012KT 9999 -SHRA FEW012 SCT018TCU BKN050 17/15 Q1000

TAF TAF EKSP
Valid from the 31 at 18:00 until the 01 at 18:00 UTC


311704Z 3118/0118 26008KT 9999 FEW012 BKN030
TEMPO 0100/0118 7000 -SHRA SCT020TCU



MET'MAP, your aeronautical weather chart ! - Copyright ORBIFLY December 2007 - Disclaimer

ORBIFLY MET'MAP TEAM :

Programming & Development : Alexandra Zaïnal
Concept & original design : Baudouin d'Aumeries
Assistance for programming : Marc-Olivier Méhu
Technical & hardware support : Manuel Goepfert

Contact : metmap@orbifly.com




SOURCES & CREDITS :

   NOAA